Latest Weather Observations for Alva Beach

IDQ60801

Issued at 9:31 am EST Saturday 1 August 2015 (issued every 30 minutes, with the page automatically refreshed every 10 minutes)

About weather observations | Map of weather stations | Latest weather observations for QLD | Other Formats
Station Details ID: 033295 Name: ALVA BEACH Lat: -19.46 Lon: 147.48 Height: 7.5 m
Data from the previous 72 hours. | See also: Recent months at Alva Beach
Date/Time
EST
Temp
°C
App
Temp
°C
Dew
Point
Rel
Hum
%
Delta-T
°C
Wind Press
QNH
hPa
Press
MSL
hPa
Rain
since 9 am
mm
Dir
 
Spd
km/h
Gust
km/h
Spd
kts
Gust
kts
01/09:30am 22.6 21.8 13.9 58 5.1 SE 11 19 6 10 1022.2 1022.2 0.0
01/09:00am 21.4 21.1 14.3 64 4.1 S 9 17 5 9 1022.0 1022.0 0.0
01/08:30am 19.6 18.9 14.2 71 3.1 S 11 17 6 9 1021.8 1021.8 0.0
01/08:00am 17.9 17.4 13.8 77 2.3 SSW 9 13 5 7 1021.5 1021.5 0.0
01/07:30am 16.2 15.7 13.7 85 1.4 SSW 9 15 5 8 1021.2 1021.2 0.0
01/07:00am 15.1 14.5 13.5 90 0.9 SSW 9 13 5 7 1021.1 1021.1 0.0
01/06:30am 15.3 14.7 13.5 89 1.0 S 9 13 5 7 1020.8 1020.8 0.0
01/06:00am 15.4 14.4 13.4 88 1.1 S 11 19 6 10 1020.4 1020.4 0.0
01/05:30am 15.6 14.7 13.6 88 1.1 SSW 11 17 6 9 1020.1 1020.1 0.0
01/05:00am 16.1 15.8 14.3 89 1.0 SSW 9 13 5 7 1019.9 1019.9 0.0
01/04:30am 16.3 16.0 13.2 82 1.7 S 7 13 4 7 1019.6 1019.6 0.0
01/04:00am 17.8 17.1 13.1 74 2.6 S 9 19 5 10 1019.5 1019.5 0.0
01/03:30am 19.8 18.8 15.7 77 2.4 SE 15 24 8 13 1019.6 1019.6 0.0
01/03:00am 19.8 18.3 15.4 76 2.6 SE 17 26 9 14 1019.5 1019.5 0.0
01/02:30am 20.0 19.1 15.8 77 2.5 ESE 15 24 8 13 1019.5 1019.5 0.0
01/02:00am 20.6 17.8 15.4 72 3.1 E 24 32 13 17 1019.5 1019.5 0.0
01/01:30am 20.8 17.5 15.1 70 3.4 E 26 35 14 19 1019.7 1019.7 0.0
01/01:00am 21.1 17.1 15.2 69 3.5 E 30 41 16 22 1019.9 1019.9 0.0
01/12:30am 21.1 17.4 15.0 68 3.6 E 28 37 15 20 1020.1 1020.1 0.0
01/12:00am 21.0 17.0 15.1 69 3.5 E 30 41 16 22 1020.1 1020.1 0.0
 
Date/Time
EST
Temp
°C
App
Temp
°C
Dew
Point
Rel
Hum
%
Delta-T
°C
Wind Press
QNH
hPa
Press
MSL
hPa
Rain
since 9 am
mm
Dir
 
Spd
km/h
Gust
km/h
Spd
kts
Gust
kts
31/11:30pm 21.0 16.9 14.9 68 3.6 E 30 37 16 20 1020.2 1020.2 0.0
31/11:00pm 21.0 17.5 14.6 67 3.7 E 26 37 14 20 1020.4 1020.4 0.0
31/10:30pm 21.1 17.3 14.7 67 3.8 E 28 39 15 21 1020.4 1020.4 0.0
31/10:00pm 21.2 17.5 15.1 68 3.6 E 28 39 15 21 1020.2 1020.2 0.0
31/09:30pm 21.3 18.4 16.0 72 3.2 E 26 37 14 20 1020.1 1020.1 0.0
31/09:00pm 21.3 17.8 15.6 70 3.4 E 28 37 15 20 1020.1 1020.1 0.0
31/08:30pm 21.3 17.7 15.2 68 3.6 E 28 43 15 23 1019.6 1019.6 0.0
31/08:00pm 21.4 17.7 15.9 71 3.3 E 30 41 16 22 1019.2 1019.2 0.0
31/07:30pm 21.5 17.3 15.8 70 3.4 E 32 43 17 23 1018.9 1018.9 0.0
31/07:00pm 21.7 17.4 15.3 67 3.8 E 32 43 17 23 1018.5 1018.5 0.0
31/06:30pm 21.6 18.0 15.2 67 3.8 E 28 37 15 20 1018.3 1018.3 0.0
31/06:00pm 21.7 19.0 15.5 68 3.7 E 24 33 13 18 1018.2 1018.2 0.0
31/05:30pm 21.9 18.8 15.5 67 3.8 E 26 35 14 19 1018.0 1018.0 0.0
31/05:00pm 22.0 19.3 15.6 67 3.8 E 24 32 13 17 1017.9 1017.9 0.0
31/04:30pm 22.6 20.4 15.9 66 4.0 E 22 32 12 17 1017.8 1017.8 0.0
31/04:00pm 22.8 20.8 15.4 63 4.4 E 20 28 11 15 1017.7 1017.7 0.0
31/03:30pm 23.0 20.6 14.3 58 5.1 E 20 28 11 15 1017.8 1017.8 0.0
31/03:00pm 23.6 21.0 14.9 58 5.2 E 22 28 12 15 1018.3 1018.3 0.0
31/02:30pm 24.0 21.3 13.5 52 6.1 E 20 28 11 15 1018.5 1018.5 0.0
31/02:00pm 25.2 23.7 15.2 54 6.0 ESE 17 24 9 13 1018.9 1018.9 0.0
31/01:30pm 25.1 23.0 14.6 52 6.3 ESE 19 30 10 16 1019.4 1019.4 0.0
31/01:00pm 24.8 22.4 14.3 52 6.2 ESE 20 30 11 16 1019.8 1019.8 0.0
31/12:30pm 24.7 22.8 14.2 52 6.2 ESE 17 28 9 15 1020.5 1020.5 0.0
31/12:00pm 24.6 23.1 15.2 55 5.6 ESE 17 30 9 16 1021.1 1021.1 0.0
31/11:30am 23.6 21.1 14.0 55 5.6 ESE 20 30 11 16 1021.6 1021.6 0.0
31/11:00am 22.3 19.8 14.2 60 4.7 SE 20 28 11 15 1022.0 1022.0 0.0
31/10:30am 22.6 21.4 13.9 58 5.1 SE 13 20 7 11 1022.2 1022.2 0.0
31/10:00am 22.1 19.9 13.2 57 5.1 SE 17 24 9 13 1022.5 1022.5 0.0
31/09:30am 22.2 20.8 13.3 57 5.1 SE 13 22 7 12 1022.6 1022.6 0.0
31/09:00am 21.6 20.7 13.8 61 4.5 SSE 11 24 6 13 1022.4 1022.4 0.0
31/08:30am 20.0 19.6 14.1 69 3.4 SSE 9 17 5 9 1022.0 1022.0 0.0
31/08:00am 17.4 17.1 13.3 77 2.3 SSW 7 13 4 7 1021.6 1021.6 0.0
31/07:30am 15.6 15.5 13.8 89 1.0 SSW 7 11 4 6 1021.4 1021.4 0.0
31/07:00am 14.6 14.2 13.1 91 0.8 SSW 7 11 4 6 1021.2 1021.2 0.0
31/06:30am 15.2 15.0 13.6 90 0.9 SSW 7 11 4 6 1020.9 1020.9 0.0
31/06:00am 16.0 15.6 12.9 82 1.7 SSW 7 11 4 6 1020.5 1020.5 0.0
31/05:30am 17.4 16.6 12.9 75 2.5 S 9 24 5 13 1020.4 1020.4 0.0
31/05:00am 18.2 17.1 13.1 72 2.9 SSE 11 20 6 11 1020.3 1020.3 0.0
31/04:30am 19.5 17.1 14.3 72 3.0 SE 20 30 11 16 1020.3 1020.3 0.0
31/04:00am 19.6 17.6 15.0 75 2.7 SE 19 33 10 18 1020.6 1020.6 0.0
31/03:30am 19.5 17.5 15.0 75 2.6 SE 19 28 10 15 1020.7 1020.7 0.0
31/03:00am 19.6 16.7 15.0 75 2.7 SE 24 33 13 18 1020.7 1020.7 0.0
31/02:30am 19.6 17.7 15.3 76 2.5 ESE 19 30 10 16 1020.8 1020.8 0.0
31/02:00am 19.8 17.8 15.4 76 2.6 ESE 20 35 11 19 1020.9 1020.9 0.0
31/01:30am 19.8 17.7 14.8 73 2.9 ESE 19 32 10 17 1021.2 1021.2 0.0
31/01:00am 20.0 18.0 15.0 73 2.9 ESE 19 30 10 16 1021.6 1021.6 0.0
31/12:30am 20.1 17.7 15.3 74 2.8 ESE 22 37 12 20 1021.6 1021.6 0.0
31/12:00am 20.2 17.8 15.4 74 2.8 ESE 22 35 12 19 1021.5 1021.5 0.0
 
Date/Time
EST
Temp
°C
App
Temp
°C
Dew
Point
Rel
Hum
%
Delta-T
°C
Wind Press
QNH
hPa
Press
MSL
hPa
Rain
since 9 am
mm
Dir
 
Spd
km/h
Gust
km/h
Spd
kts
Gust
kts
30/11:30pm 20.4 18.4 15.4 73 3.0 ESE 20 30 11 16 1021.6 1021.6 0.0
30/11:00pm 20.3 17.5 15.3 73 2.9 ESE 24 39 13 21 1021.7 1021.7 0.0
30/10:30pm 20.7 18.7 15.5 72 3.1 ESE 20 32 11 17 1021.8 1021.8 0.0
30/10:00pm 20.7 18.6 15.3 71 3.2 ESE 20 32 11 17 1021.8 1021.8 0.0
30/09:30pm 20.8 18.9 15.1 70 3.4 ESE 19 33 10 18 1021.8 1021.8 0.0
30/09:00pm 21.0 19.3 15.8 72 3.1 ESE 19 30 10 16 1021.7 1021.7 0.0
30/08:30pm 21.1 19.1 15.4 70 3.4 ESE 20 33 11 18 1021.5 1021.5 0.0
30/08:00pm 21.2 19.3 15.7 71 3.3 ESE 20 35 11 19 1021.1 1021.1 0.0
30/07:30pm 21.5 18.2 15.1 67 3.8 E 26 37 14 20 1020.9 1020.9 0.0
30/07:00pm 21.3 17.5 14.7 66 3.9 ESE 28 39 15 21 1020.5 1020.5 0.0
30/06:30pm 21.4 16.7 14.8 66 3.9 E 33 46 18 25 1020.1 1020.1 0.0
30/06:00pm 21.6 17.1 15.0 66 3.9 E 32 39 17 21 1020.0 1020.0 0.0
30/05:30pm 21.8 18.9 15.2 66 3.9 E 24 35 13 19 1019.9 1019.9 0.0
30/05:00pm 22.0 19.2 15.4 66 3.9 E 24 33 13 18 1020.0 1020.0 0.0
30/04:30pm 22.5 20.3 14.9 62 4.5 E 20 28 11 15 1019.9 1019.9 0.0
30/04:00pm 23.5 21.3 14.5 57 5.3 ESE 19 30 10 16 1019.8 1019.8 0.0
30/03:30pm 24.1 22.2 15.3 58 5.3 ESE 19 30 10 16 1019.9 1019.9 0.0
30/03:00pm 24.2 22.2 14.9 56 5.5 ESE 19 30 10 16 1020.0 1020.0 0.0
30/02:30pm 24.8 23.2 15.1 54 5.8 ESE 17 26 9 14 1020.3 1020.3 0.0
30/02:00pm 24.5 22.3 14.9 55 5.7 ESE 20 32 11 17 1020.5 1020.5 0.0
30/01:30pm 24.7 22.6 15.1 55 5.8 ESE 20 32 11 17 1020.9 1020.9 0.0
30/01:00pm 24.5 22.7 15.4 57 5.5 ESE 19 33 10 18 1021.3 1021.3 0.0
30/12:30pm 24.1 22.2 14.2 54 5.8 ESE 17 28 9 15 1021.7 1021.7 0.0
30/12:00pm 23.4 21.5 14.1 56 5.4 ESE 17 32 9 17 1022.3 1022.3 0.0
30/11:30am 22.1 19.9 13.2 57 5.1 SE 17 26 9 14 1022.7 1022.7 0.0
30/11:00am 23.0 20.9 13.5 55 5.5 SE 17 26 9 14 1023.1 1023.1 0.0
30/10:30am 22.2 20.1 12.5 54 5.5 SSE 15 28 8 15 1023.4 1023.4 0.0
30/10:00am 21.8 19.9 12.9 57 5.1 SE 15 22 8 12 1023.7 1023.7 0.0
30/09:30am 21.4 20.7 13.1 59 4.7 SE 9 19 5 10 1023.6 1023.6 0.0
30/09:00am 20.1 19.0 13.1 64 4.0 S 11 19 6 10 1023.6 1023.6 0.0
30/08:30am 18.1 16.7 12.1 68 3.3 SSW 11 19 6 10 1023.3 1023.3 0.0
30/08:00am 16.5 15.4 12.1 75 2.4 SSW 9 15 5 8 1023.0 1023.0 0.0
30/07:30am 14.8 14.0 12.8 88 1.1 SSW 9 15 5 8 1022.8 1022.8 0.0
30/07:00am 13.6 12.6 12.2 91 0.8 SSW 9 13 5 7 1022.6 1022.6 0.0
30/06:30am 14.0 12.7 12.6 91 0.8 SSW 11 17 6 9 1022.3 1022.3 0.0
30/06:00am 14.1 13.2 12.7 91 0.8 SSW 9 13 5 7 1021.9 1021.9 0.0
30/05:30am 14.3 13.4 12.7 90 0.9 SSW 9 13 5 7 1021.8 1021.8 0.0
30/05:00am 14.4 13.3 13.0 91 0.8 SSW 11 15 6 8 1021.8 1021.8 0.0
30/04:30am 14.6 13.9 13.1 91 0.8 SSW 9 15 5 8 1021.7 1021.7 0.0
30/04:00am 14.7 14.0 13.2 91 0.8 SSW 9 15 5 8 1021.6 1021.6 0.0
30/03:30am 15.0 14.3 13.2 89 1.0 SSW 9 11 5 6 1021.9 1021.9 0.0
30/03:00am 15.8 15.2 12.4 80 1.9 SSW 7 9 4 5 1021.9 1021.9 0.0
30/02:30am 18.1 17.4 13.2 73 2.8 S 9 17 5 9 1022.1 1022.1 0.0
30/02:00am 19.8 17.3 14.0 69 3.3 SE 20 32 11 17 1022.4 1022.4 0.0
30/01:30am 19.8 17.0 14.2 70 3.2 SE 22 35 12 19 1022.7 1022.7 0.0
30/01:00am 19.9 17.1 14.3 70 3.2 SE 22 35 12 19 1022.9 1022.9 0.0
30/12:30am 20.1 16.7 14.7 71 3.2 SE 26 35 14 19 1023.3 1023.3 0.0
30/12:00am 20.0 18.3 14.6 71 3.1 SE 17 28 9 15 1023.6 1023.6 0.0
 
Date/Time
EST
Temp
°C
App
Temp
°C
Dew
Point
Rel
Hum
%
Delta-T
°C
Wind Press
QNH
hPa
Press
MSL
hPa
Rain
since 9 am
mm
Dir
 
Spd
km/h
Gust
km/h
Spd
kts
Gust
kts
29/11:30pm 20.2 17.6 14.8 71 3.2 SE 22 37 12 20 1023.7 1023.7 0.0
29/11:00pm 20.3 16.6 15.1 72 3.0 SE 28 39 15 21 1023.8 1023.8 0.0
29/10:30pm 20.2 17.5 14.6 70 3.3 ESE 22 37 12 20 1023.9 1023.9 0.0
29/10:00pm 20.3 17.3 14.9 71 3.2 ESE 24 39 13 21 1023.9 1023.9 0.0
29/09:48pm 20.4 16.6 14.7 70 3.3 SE 28 46 15 25 1024.0 1024.0 0.0
29/09:30pm 20.5 17.2 15.1 71 3.2 SE 26 44 14 24 1024.0 1024.0 0.0
29/09:09pm 20.5 16.7 14.8 70 3.3 ESE 28 46 15 25 1024.0 1024.0 0.0
29/09:00pm 20.6 16.5 14.9 70 3.3 SE 30 46 16 25 1024.0 1024.0 0.0
29/08:57pm 20.6 17.0 15.2 71 3.2 ESE 28 46 15 25 1024.0 1024.0 0.0
29/08:30pm 20.7 17.5 15.3 71 3.2 ESE 26 44 14 24 1023.9 1023.9 0.0
29/08:00pm 20.8 17.9 15.1 70 3.4 ESE 24 39 13 21 1023.4 1023.4 0.0
29/07:30pm 21.0 17.7 15.1 69 3.5 ESE 26 37 14 20 1023.0 1023.0 0.0
29/07:00pm 21.0 18.2 15.3 70 3.4 ESE 24 35 13 19 1022.6 1022.6 0.0
29/06:30pm 21.0 17.5 14.6 67 3.7 ESE 26 37 14 20 1022.4 1022.4 0.0
29/06:00pm 21.2 18.1 14.6 66 3.9 ESE 24 39 13 21 1022.0 1022.0 0.0
29/05:30pm 21.2 16.8 14.1 64 4.1 ESE 30 39 16 21 1021.7 1021.7 0.0
29/05:11pm 21.5 17.5 14.2 63 4.3 ESE 28 46 15 25 1021.6 1021.6 0.0
29/05:00pm 21.7 17.4 14.4 63 4.3 ESE 30 43 16 23 1021.6 1021.6 0.0
29/04:30pm 22.5 19.0 14.4 60 4.8 ESE 26 39 14 21 1021.3 1021.3 0.0
29/04:22pm 22.6 18.8 14.7 61 4.7 ESE 28 46 15 25 1021.3 1021.3 0.0
29/04:00pm 22.7 18.0 14.3 59 4.9 ESE 32 48 17 26 1021.3 1021.3 0.0
29/03:53pm 22.8 18.7 14.9 61 4.7 ESE 30 48 16 26 1021.3 1021.3 0.0
29/03:30pm 23.3 19.0 15.4 61 4.7 ESE 32 43 17 23 1021.3 1021.3 0.0
29/03:00pm 23.6 19.3 15.4 60 4.9 ESE 32 48 17 26 1021.2 1021.2 0.0
29/02:30pm 24.0 19.8 15.8 60 5.0 ESE 32 48 17 26 1021.5 1021.5 0.0
29/02:00pm 24.3 21.1 15.2 57 5.4 ESE 26 41 14 22 1021.9 1021.9 0.0
29/01:30pm 24.7 20.9 14.8 54 5.9 ESE 28 41 15 22 1022.0 1022.0 0.0
29/01:00pm 24.8 21.9 15.1 54 5.8 ESE 24 39 13 21 1022.4 1022.4 0.0
29/12:30pm 24.7 22.1 14.8 54 5.9 ESE 22 35 12 19 1023.0 1023.0 0.0
29/12:00pm 24.6 21.6 14.7 54 5.9 ESE 24 37 13 20 1023.7 1023.7 0.0
29/11:30am 24.4 21.3 14.5 54 5.9 ESE 24 39 13 21 1024.1 1024.1 0.0
29/11:00am 22.9 18.4 13.7 56 5.3 SE 30 41 16 22 1024.6 1024.5 0.0
29/10:30am 22.3 18.1 13.6 58 5.0 SE 28 44 15 24 1024.6 1024.5 0.0
29/10:00am 22.6 19.4 14.2 59 4.9 SE 24 39 13 21 1025.0 1024.9 0.0

Other Formats:

Comma delimited format used in spreadsheet applications
http://www.bom.gov.au/fwo/IDQ60801/IDQ60801.95296.axf

JavaScript Object Notation format (JSON) in row-major order
http://www.bom.gov.au/fwo/IDQ60801/IDQ60801.95296.json